sensor_id;sensor_type;location;lat;lon;timestamp;pressure;altitude;pressure_sealevel;temperature;humidity
17781;BME280;8498;52.516;13.790;2022-09-21T00:02:39;101858.28;;;9.18;82.49
17781;BME280;8498;52.516;13.790;2022-09-21T00:08:06;101854.91;;;9.15;82.31
17781;BME280;8498;52.516;13.790;2022-09-21T00:13:29;101857.03;;;9.07;81.87
17781;BME280;8498;52.516;13.790;2022-09-21T00:18:53;101857.25;;;9.02;82.37
17781;BME280;8498;52.516;13.790;2022-09-21T00:24:16;101855.50;;;9.01;82.31
17781;BME280;8498;52.516;13.790;2022-09-21T00:29:39;101866.41;;;8.94;82.23
17781;BME280;8498;52.516;13.790;2022-09-21T00:35:03;101875.38;;;8.91;82.20
17781;BME280;8498;52.516;13.790;2022-09-21T00:40:26;101869.41;;;8.86;82.15
17781;BME280;8498;52.516;13.790;2022-09-21T01:01:31;101869.00;;;8.75;82.30
17781;BME280;8498;52.516;13.790;2022-09-21T01:06:55;101872.78;;;8.69;81.95
17781;BME280;8498;52.516;13.790;2022-09-21T01:12:32;101874.72;;;8.64;81.67
17781;BME280;8498;52.516;13.790;2022-09-21T01:18:35;101880.19;;;8.61;82.28
17781;BME280;8498;52.516;13.790;2022-09-21T01:35:12;101886.50;;;8.57;81.74
17781;BME280;8498;52.516;13.790;2022-09-21T01:40:53;101891.91;;;8.54;81.66
17781;BME280;8498;52.516;13.790;2022-09-21T01:46:20;101898.13;;;8.53;82.30
17781;BME280;8498;52.516;13.790;2022-09-21T01:51:50;101887.44;;;8.56;82.61
17781;BME280;8498;52.516;13.790;2022-09-21T01:57:34;101899.75;;;8.57;82.27
17781;BME280;8498;52.516;13.790;2022-09-21T02:03:56;101900.13;;;8.48;82.20
17781;BME280;8498;52.516;13.790;2022-09-21T02:08:58;101899.44;;;8.43;82.40
17781;BME280;8498;52.516;13.790;2022-09-21T02:14:21;101896.84;;;8.41;81.98
17781;BME280;8498;52.516;13.790;2022-09-21T02:19:51;101899.75;;;8.35;82.29
17781;BME280;8498;52.516;13.790;2022-09-21T02:25:49;101892.59;;;8.37;82.05
17781;BME280;8498;52.516;13.790;2022-09-21T02:31:41;101896.44;;;8.29;81.89
17781;BME280;8498;52.516;13.790;2022-09-21T02:37:36;101902.78;;;8.25;82.41
17781;BME280;8498;52.516;13.790;2022-09-21T02:43:08;101902.88;;;8.22;82.33
17781;BME280;8498;52.516;13.790;2022-09-21T02:48:46;101896.00;;;8.18;82.13
17781;BME280;8498;52.516;13.790;2022-09-21T02:54:13;101906.69;;;8.15;82.04
17781;BME280;8498;52.516;13.790;2022-09-21T02:59:36;101905.94;;;8.11;81.94
17781;BME280;8498;52.516;13.790;2022-09-21T03:04:59;101910.28;;;8.14;82.36
17781;BME280;8498;52.516;13.790;2022-09-21T03:10:21;101912.09;;;8.11;82.25
17781;BME280;8498;52.516;13.790;2022-09-21T03:15:44;101919.38;;;8.06;82.02
17781;BME280;8498;52.516;13.790;2022-09-21T03:21:06;101923.59;;;8.10;82.32
17781;BME280;8498;52.516;13.790;2022-09-21T03:26:29;101929.97;;;8.06;82.56
17781;BME280;8498;52.516;13.790;2022-09-21T03:31:52;101923.03;;;8.02;82.53
17781;BME280;8498;52.516;13.790;2022-09-21T03:37:15;101917.66;;;8.05;82.83
17781;BME280;8498;52.516;13.790;2022-09-21T03:42:38;101923.16;;;7.99;82.19
17781;BME280;8498;52.516;13.790;2022-09-21T03:48:01;101929.44;;;7.97;82.65
17781;BME280;8498;52.516;13.790;2022-09-21T03:53:23;101935.72;;;7.94;82.88
17781;BME280;8498;52.516;13.790;2022-09-21T03:58:45;101936.13;;;8.07;82.59
17781;BME280;8498;52.516;13.790;2022-09-21T04:04:08;101939.50;;;8.10;82.39
17781;BME280;8498;52.516;13.790;2022-09-21T04:09:31;101934.28;;;8.09;82.47
17781;BME280;8498;52.516;13.790;2022-09-21T04:14:53;101939.69;;;8.06;82.53
17781;BME280;8498;52.516;13.790;2022-09-21T04:20:15;101936.28;;;8.02;82.74
17781;BME280;8498;52.516;13.790;2022-09-21T04:25:38;101936.16;;;8.05;83.29
17781;BME280;8498;52.516;13.790;2022-09-21T04:31:01;101944.00;;;8.08;82.94
17781;BME280;8498;52.516;13.790;2022-09-21T04:36:24;101939.56;;;8.09;83.48
17781;BME280;8498;52.516;13.790;2022-09-21T04:41:47;101943.50;;;8.21;83.26
17781;BME280;8498;52.516;13.790;2022-09-21T04:47:10;101939.09;;;8.21;83.68
17781;BME280;8498;52.516;13.790;2022-09-21T04:52:32;101938.97;;;8.24;83.37
17781;BME280;8498;52.516;13.790;2022-09-21T04:57:54;101946.34;;;8.16;83.33
17781;BME280;8498;52.516;13.790;2022-09-21T05:03:17;101944.78;;;8.10;83.65
17781;BME280;8498;52.516;13.790;2022-09-21T05:08:40;101950.78;;;8.16;83.35
17781;BME280;8498;52.516;13.790;2022-09-21T05:14:22;101952.50;;;8.17;82.87
17781;BME280;8498;52.516;13.790;2022-09-21T05:19:44;101963.97;;;8.17;83.40
17781;BME280;8498;52.516;13.790;2022-09-21T05:25:07;101972.53;;;8.24;83.39
17781;BME280;8498;52.516;13.790;2022-09-21T05:30:29;101978.63;;;8.26;83.79
17781;BME280;8498;52.516;13.790;2022-09-21T05:36:23;101985.59;;;8.28;83.73
17781;BME280;8498;52.516;13.790;2022-09-21T05:41:50;101990.09;;;8.26;83.72
17781;BME280;8498;52.516;13.790;2022-09-21T05:58:50;101991.69;;;8.54;84.67
17781;BME280;8498;52.516;13.790;2022-09-21T06:04:16;101995.19;;;8.77;85.21
17781;BME280;8498;52.516;13.790;2022-09-21T06:09:39;102007.59;;;8.99;85.67
17781;BME280;8498;52.516;13.790;2022-09-21T06:15:06;101995.28;;;9.18;85.52
17781;BME280;8498;52.516;13.790;2022-09-21T06:20:28;102000.69;;;9.37;85.54
17781;BME280;8498;52.516;13.790;2022-09-21T06:25:52;102002.66;;;9.53;86.17
17781;BME280;8498;52.516;13.790;2022-09-21T06:31:19;101998.84;;;9.59;86.80
17781;BME280;8498;52.516;13.790;2022-09-21T06:36:41;102006.94;;;9.76;87.32
17781;BME280;8498;52.516;13.790;2022-09-21T06:42:04;101998.44;;;9.88;87.26
17781;BME280;8498;52.516;13.790;2022-09-21T06:47:26;102001.34;;;10.03;87.14
17781;BME280;8498;52.516;13.790;2022-09-21T06:52:48;102006.00;;;10.18;87.86
17781;BME280;8498;52.516;13.790;2022-09-21T06:58:11;102010.56;;;10.35;87.69
17781;BME280;8498;52.516;13.790;2022-09-21T07:03:34;102021.47;;;10.47;88.08
17781;BME280;8498;52.516;13.790;2022-09-21T07:08:56;102024.34;;;10.61;88.37
17781;BME280;8498;52.516;13.790;2022-09-21T07:14:41;102028.16;;;10.75;89.22
17781;BME280;8498;52.516;13.790;2022-09-21T07:20:07;102027.34;;;10.91;89.75
17781;BME280;8498;52.516;13.790;2022-09-21T07:25:29;102026.38;;;11.11;91.50
17781;BME280;8498;52.516;13.790;2022-09-21T07:30:52;102029.28;;;11.24;92.65
17781;BME280;8498;52.516;13.790;2022-09-21T07:36:14;102032.00;;;11.41;94.12
17781;BME280;8498;52.516;13.790;2022-09-21T07:41:38;102031.38;;;11.70;95.10
17781;BME280;8498;52.516;13.790;2022-09-21T07:47:01;102025.19;;;11.87;95.13
17781;BME280;8498;52.516;13.790;2022-09-21T07:52:24;102021.81;;;12.01;95.16
17781;BME280;8498;52.516;13.790;2022-09-21T07:57:48;102027.53;;;12.10;96.18
17781;BME280;8498;52.516;13.790;2022-09-21T08:03:29;102030.84;;;12.31;95.97
17781;BME280;8498;52.516;13.790;2022-09-21T08:08:51;102036.91;;;12.50;95.86
17781;BME280;8498;52.516;13.790;2022-09-21T08:14:19;102037.44;;;12.73;96.10
17781;BME280;8498;52.516;13.790;2022-09-21T08:19:48;102046.22;;;12.91;96.30
17781;BME280;8498;52.516;13.790;2022-09-21T08:25:10;102045.16;;;13.09;96.15
17781;BME280;8498;52.516;13.790;2022-09-21T08:30:33;102051.66;;;13.20;95.49
17781;BME280;8498;52.516;13.790;2022-09-21T08:35:59;102041.03;;;13.35;94.90
17781;BME280;8498;52.516;13.790;2022-09-21T08:47:18;102039.63;;;13.59;94.13
17781;BME280;8498;52.516;13.790;2022-09-21T08:52:43;102052.25;;;13.85;93.29
17781;BME280;8498;52.516;13.790;2022-09-21T08:58:22;102048.88;;;14.12;92.99
17781;BME280;8498;52.516;13.790;2022-09-21T09:10:31;102051.78;;;14.51;91.80
17781;BME280;8498;52.516;13.790;2022-09-21T09:21:37;102056.50;;;14.89;89.78
17781;BME280;8498;52.516;13.790;2022-09-21T09:27:32;102052.94;;;15.02;87.64
17781;BME280;8498;52.516;13.790;2022-09-21T09:33:04;102052.34;;;15.12;87.91
17781;BME280;8498;52.516;13.790;2022-09-21T09:38:56;102050.56;;;15.52;86.38
17781;BME280;8498;52.516;13.790;2022-09-21T09:50:12;102049.41;;;16.21;83.27
17781;BME280;8498;52.516;13.790;2022-09-21T09:55:47;102056.50;;;16.09;79.74
17781;BME280;8498;52.516;13.790;2022-09-21T10:06:59;102044.72;;;16.86;76.90
17781;BME280;8498;52.516;13.790;2022-09-21T10:12:25;102046.25;;;17.38;74.57
17781;BME280;8498;52.516;13.790;2022-09-21T10:18:07;102042.00;;;17.46;72.70
17781;BME280;8498;52.516;13.790;2022-09-21T10:23:36;102043.56;;;18.08;71.06
17781;BME280;8498;52.516;13.790;2022-09-21T10:29:01;102038.84;;;17.76;67.36
17781;BME280;8498;52.516;13.790;2022-09-21T10:34:25;102035.41;;;18.31;66.97
17781;BME280;8498;52.516;13.790;2022-09-21T10:39:48;102028.06;;;18.56;62.35
17781;BME280;8498;52.516;13.790;2022-09-21T10:45:29;102025.69;;;19.07;60.04
17781;BME280;8498;52.516;13.790;2022-09-21T10:50:52;102018.25;;;18.99;58.49
17781;BME280;8498;52.516;13.790;2022-09-21T10:56:16;102011.66;;;19.24;58.70
17781;BME280;8498;52.516;13.790;2022-09-21T11:01:46;102015.50;;;18.67;60.53
17781;BME280;8498;52.516;13.790;2022-09-21T11:07:16;102016.81;;;18.06;59.46
17781;BME280;8498;52.516;13.790;2022-09-21T11:12:50;102009.34;;;18.32;56.89
17781;BME280;8498;52.516;13.790;2022-09-21T11:24:01;102004.44;;;18.04;55.87
17781;BME280;8498;52.516;13.790;2022-09-21T11:29:34;102006.31;;;18.14;57.07
17781;BME280;8498;52.516;13.790;2022-09-21T11:41:30;102004.94;;;18.20;60.28
17781;BME280;8498;52.516;13.790;2022-09-21T12:15:33;101979.63;;;18.56;56.07
17781;BME280;8498;52.516;13.790;2022-09-21T12:21:17;101969.66;;;19.74;52.06
17781;BME280;8498;52.516;13.790;2022-09-21T12:26:43;101970.16;;;20.40;50.70
17781;BME280;8498;52.516;13.790;2022-09-21T12:32:41;101965.44;;;19.40;52.41
17781;BME280;8498;52.516;13.790;2022-09-21T12:38:23;101973.22;;;19.22;53.84
17781;BME280;8498;52.516;13.790;2022-09-21T12:44:01;101958.75;;;19.23;55.14
17781;BME280;8498;52.516;13.790;2022-09-21T12:49:27;101961.56;;;19.22;54.41
17781;BME280;8498;52.516;13.790;2022-09-21T12:55:48;101961.28;;;19.36;53.69
17781;BME280;8498;52.516;13.790;2022-09-21T13:12:47;101951.53;;;21.16;48.51
17781;BME280;8498;52.516;13.790;2022-09-21T13:23:56;101946.28;;;19.85;51.84
17781;BME280;8498;52.516;13.790;2022-09-21T13:34:43;101946.16;;;19.44;54.17
17781;BME280;8498;52.516;13.790;2022-09-21T13:50:59;101929.34;;;19.52;52.17
17781;BME280;8498;52.516;13.790;2022-09-21T13:56:25;101927.97;;;20.39;49.25
17781;BME280;8498;52.516;13.790;2022-09-21T14:01:48;101929.47;;;20.72;47.36
17781;BME280;8498;52.516;13.790;2022-09-21T14:07:11;101914.94;;;20.14;49.43
17781;BME280;8498;52.516;13.790;2022-09-21T14:12:40;101919.88;;;19.78;49.87
17781;BME280;8498;52.516;13.790;2022-09-21T14:18:21;101912.78;;;19.77;50.01
17781;BME280;8498;52.516;13.790;2022-09-21T14:29:38;101908.78;;;20.42;48.65
17781;BME280;8498;52.516;13.790;2022-09-21T14:35:11;101905.53;;;20.58;47.48
17781;BME280;8498;52.516;13.790;2022-09-21T14:40:37;101902.09;;;20.46;48.79
17781;BME280;8498;52.516;13.790;2022-09-21T14:52:07;101895.38;;;20.31;48.94
17781;BME280;8498;52.516;13.790;2022-09-21T15:09:02;101889.59;;;20.05;45.20
17781;BME280;8498;52.516;13.790;2022-09-21T15:14:53;101884.81;;;19.78;46.86
17781;BME280;8498;52.516;13.790;2022-09-21T15:20:20;101895.22;;;19.62;48.36
17781;BME280;8498;52.516;13.790;2022-09-21T15:26:03;101887.00;;;19.43;48.47
17781;BME280;8498;52.516;13.790;2022-09-21T15:31:32;101886.94;;;19.13;48.17
17781;BME280;8498;52.516;13.790;2022-09-21T15:37:11;101890.34;;;19.15;49.85
17781;BME280;8498;52.516;13.790;2022-09-21T15:42:44;101889.28;;;19.06;49.82
17781;BME280;8498;52.516;13.790;2022-09-21T15:48:22;101889.94;;;18.98;49.89
17781;BME280;8498;52.516;13.790;2022-09-21T15:53:51;101896.38;;;18.86;51.11
17781;BME280;8498;52.516;13.790;2022-09-21T15:59:19;101890.03;;;18.76;51.66
17781;BME280;8498;52.516;13.790;2022-09-21T16:04:46;101894.94;;;18.71;50.86
17781;BME280;8498;52.516;13.790;2022-09-21T16:16:02;101910.41;;;18.58;51.07
17781;BME280;8498;52.516;13.790;2022-09-21T16:21:31;101899.97;;;18.53;52.70
17781;BME280;8498;52.516;13.790;2022-09-21T16:27:00;101902.81;;;18.41;54.49
17781;BME280;8498;52.516;13.790;2022-09-21T16:37:48;101910.91;;;18.07;57.88
17781;BME280;8498;52.516;13.790;2022-09-21T16:43:11;101909.69;;;17.78;59.79
17781;BME280;8498;52.516;13.790;2022-09-21T16:48:34;101912.31;;;17.55;61.87
17781;BME280;8498;52.516;13.790;2022-09-21T16:53:56;101909.47;;;17.35;63.17
17781;BME280;8498;52.516;13.790;2022-09-21T16:59:20;101921.75;;;17.15;64.65
17781;BME280;8498;52.516;13.790;2022-09-21T17:04:45;101919.72;;;16.95;65.83
17781;BME280;8498;52.516;13.790;2022-09-21T17:10:13;101934.50;;;16.76;66.77
17781;BME280;8498;52.516;13.790;2022-09-21T17:15:41;101932.19;;;16.59;68.14
17781;BME280;8498;52.516;13.790;2022-09-21T17:21:04;101942.09;;;16.46;68.53
17781;BME280;8498;52.516;13.790;2022-09-21T17:26:27;101931.41;;;16.33;68.99
17781;BME280;8498;52.516;13.790;2022-09-21T17:31:49;101940.66;;;16.17;69.50
17781;BME280;8498;52.516;13.790;2022-09-21T17:37:14;101937.03;;;16.05;69.72
17781;BME280;8498;52.516;13.790;2022-09-21T17:42:41;101939.63;;;15.94;70.32
17781;BME280;8498;52.516;13.790;2022-09-21T17:48:17;101947.84;;;15.78;70.91
17781;BME280;8498;52.516;13.790;2022-09-21T17:53:40;101942.63;;;15.64;71.70
17781;BME280;8498;52.516;13.790;2022-09-21T17:59:04;101947.50;;;15.45;72.07
17781;BME280;8498;52.516;13.790;2022-09-21T18:04:28;101944.13;;;15.28;72.57
17781;BME280;8498;52.516;13.790;2022-09-21T18:09:56;101956.84;;;15.12;73.27
17781;BME280;8498;52.516;13.790;2022-09-21T18:15:31;101962.41;;;15.09;73.52
17781;BME280;8498;52.516;13.790;2022-09-21T18:20:56;101966.44;;;15.02;73.61
17781;BME280;8498;52.516;13.790;2022-09-21T18:26:23;101967.44;;;14.87;74.37
17781;BME280;8498;52.516;13.790;2022-09-21T18:38:39;101968.84;;;14.65;74.36
17781;BME280;8498;52.516;13.790;2022-09-21T18:49:16;101991.13;;;14.38;74.99
17781;BME280;8498;52.516;13.790;2022-09-21T18:54:44;101985.69;;;14.25;75.51
17781;BME280;8498;52.516;13.790;2022-09-21T19:00:10;101992.56;;;14.15;75.67
17781;BME280;8498;52.516;13.790;2022-09-21T19:05:36;101989.78;;;14.02;76.06
17781;BME280;8498;52.516;13.790;2022-09-21T19:22:19;101986.53;;;13.69;76.14
17781;BME280;8498;52.516;13.790;2022-09-21T19:27:59;101991.72;;;13.56;76.41
17781;BME280;8498;52.516;13.790;2022-09-21T19:33:28;101984.34;;;13.45;76.46
17781;BME280;8498;52.516;13.790;2022-09-21T19:39:11;101993.00;;;13.35;76.65
17781;BME280;8498;52.516;13.790;2022-09-21T19:44:48;102001.81;;;13.21;77.14
17781;BME280;8498;52.516;13.790;2022-09-21T19:50:18;102004.03;;;13.13;76.85
17781;BME280;8498;52.516;13.790;2022-09-21T19:55:42;101996.63;;;13.02;77.21
17781;BME280;8498;52.516;13.790;2022-09-21T20:01:24;101998.03;;;12.94;77.17
17781;BME280;8498;52.516;13.790;2022-09-21T20:06:51;101999.41;;;12.85;76.89
17781;BME280;8498;52.516;13.790;2022-09-21T20:12:26;102000.81;;;12.76;76.75
17781;BME280;8498;52.516;13.790;2022-09-21T20:17:59;102000.28;;;12.70;77.03
17781;BME280;8498;52.516;13.790;2022-09-21T20:23:23;101999.69;;;12.65;77.91
17781;BME280;8498;52.516;13.790;2022-09-21T20:28:46;102000.53;;;12.65;78.91
17781;BME280;8498;52.516;13.790;2022-09-21T20:34:08;101999.59;;;12.66;78.67
17781;BME280;8498;52.516;13.790;2022-09-21T20:39:32;102003.88;;;12.69;79.25
17781;BME280;8498;52.516;13.790;2022-09-21T20:44:54;102003.03;;;12.68;79.73
17781;BME280;8498;52.516;13.790;2022-09-21T20:50:17;102001.06;;;12.72;79.35
17781;BME280;8498;52.516;13.790;2022-09-21T20:55:40;102008.19;;;12.71;79.62
17781;BME280;8498;52.516;13.790;2022-09-21T21:01:06;102001.13;;;12.70;79.72
17781;BME280;8498;52.516;13.790;2022-09-21T21:06:29;102003.78;;;12.70;79.90
17781;BME280;8498;52.516;13.790;2022-09-21T21:11:55;102006.47;;;12.70;79.99
17781;BME280;8498;52.516;13.790;2022-09-21T21:17:17;102005.88;;;12.65;80.11
17781;BME280;8498;52.516;13.790;2022-09-21T21:22:40;102002.94;;;12.70;80.48
17781;BME280;8498;52.516;13.790;2022-09-21T21:28:02;102000.81;;;12.76;80.13
17781;BME280;8498;52.516;13.790;2022-09-21T21:33:24;102001.66;;;12.77;80.69
17781;BME280;8498;52.516;13.790;2022-09-21T21:38:47;101999.09;;;12.75;81.00
17781;BME280;8498;52.516;13.790;2022-09-21T21:44:09;101996.75;;;12.85;80.82
17781;BME280;8498;52.516;13.790;2022-09-21T21:49:32;101991.41;;;12.85;80.95
17781;BME280;8498;52.516;13.790;2022-09-21T21:54:54;101997.69;;;12.84;81.07
17781;BME280;8498;52.516;13.790;2022-09-21T22:00:16;102000.44;;;12.82;80.83
17781;BME280;8498;52.516;13.790;2022-09-21T22:05:38;101996.34;;;12.77;81.22
17781;BME280;8498;52.516;13.790;2022-09-21T22:11:02;101994.78;;;12.73;80.94
17781;BME280;8498;52.516;13.790;2022-09-21T22:16:26;102001.28;;;12.67;81.23
17781;BME280;8498;52.516;13.790;2022-09-21T22:21:49;101983.84;;;12.62;81.49
17781;BME280;8498;52.516;13.790;2022-09-21T22:27:15;101995.63;;;12.58;81.67
17781;BME280;8498;52.516;13.790;2022-09-21T22:32:38;101993.13;;;12.55;81.73
17781;BME280;8498;52.516;13.790;2022-09-21T22:38:01;101993.31;;;12.52;81.49
17781;BME280;8498;52.516;13.790;2022-09-21T22:43:23;101999.81;;;12.46;81.74
17781;BME280;8498;52.516;13.790;2022-09-21T22:48:45;101992.31;;;12.37;81.91
17781;BME280;8498;52.516;13.790;2022-09-21T22:54:08;102001.44;;;12.33;82.05
17781;BME280;8498;52.516;13.790;2022-09-21T22:59:31;101996.28;;;12.30;81.91
17781;BME280;8498;52.516;13.790;2022-09-21T23:04:53;101993.84;;;12.25;81.95
17781;BME280;8498;52.516;13.790;2022-09-21T23:10:16;101991.97;;;12.27;82.42
17781;BME280;8498;52.516;13.790;2022-09-21T23:15:41;101997.66;;;12.37;82.07
17781;BME280;8498;52.516;13.790;2022-09-21T23:21:06;101991.47;;;12.36;82.20
17781;BME280;8498;52.516;13.790;2022-09-21T23:26:30;101994.91;;;12.38;82.32
17781;BME280;8498;52.516;13.790;2022-09-21T23:31:54;101985.81;;;12.42;82.77
17781;BME280;8498;52.516;13.790;2022-09-21T23:37:17;101986.69;;;12.43;82.33
17781;BME280;8498;52.516;13.790;2022-09-21T23:42:39;101981.59;;;12.38;82.71
17781;BME280;8498;52.516;13.790;2022-09-21T23:48:01;101986.13;;;12.36;82.51
17781;BME280;8498;52.516;13.790;2022-09-21T23:53:25;101988.81;;;12.36;82.54
17781;BME280;8498;52.516;13.790;2022-09-21T23:58:49;101986.31;;;12.33;82.79
